Time;durP1;ratioP1;P1;durP2;ratioP2;P2;SDS_P1;SDS_P2;PMS_P1;PMS_P2;Temp;Humidity;BMP_temperature;BMP_pressure;BME280_temperature;BME280_humidity;BME280_pressure;Samples;Min_cycle;Max_cycle;Signal;HPM_P1;HPM_P2
2022/12/15 00:40:44;;;;;;;93.70;46.70;;;-5.60;1.00;;;;;;6237275;28;20242;-50
2022/12/15 00:43:48;;;;;;;80.77;42.57;;;-5.90;1.00;;;;;;6238116;28;20238;-50
2022/12/15 00:46:55;;;;;;;80.83;43.37;;;-5.70;1.00;;;;;;6219128;28;20699;-50
2022/12/15 01:20:16;;;;;;;103.23;49.93;;;-5.70;1.00;;;;;;6237854;28;20234;-50
2022/12/15 01:23:20;;;;;;;93.60;47.80;;;-5.90;1.00;;;;;;6237879;28;20239;-49
2022/12/15 01:26:23;;;;;;;83.07;44.67;;;-5.60;1.00;;;;;;6217985;28;20744;-50
2022/12/15 01:29:26;;;;;;;82.77;44.60;;;-5.50;1.00;;;;;;6226773;28;20637;-49
2022/12/15 01:32:29;;;;;;;81.87;42.80;;;-5.70;1.00;;;;;;6237456;28;20237;-49
2022/12/15 01:35:33;;;;;;;76.37;42.13;;;-5.80;1.00;;;;;;6233697;28;20612;-50
2022/12/15 01:38:36;;;;;;;72.77;40.17;;;-5.80;1.00;;;;;;6236369;28;20746;-49
2022/12/15 01:41:38;;;;;;;69.63;40.43;;;-5.70;1.00;;;;;;6214193;28;20597;-50
2022/12/15 01:44:41;;;;;;;77.10;42.10;;;-5.60;1.00;;;;;;6212032;28;20431;-50
2022/12/15 01:47:44;;;;;;;73.60;41.57;;;-5.60;1.00;;;;;;6211745;28;20536;-49
2022/12/15 01:50:56;;;;;;;75.23;42.50;;;-5.60;1.00;;;;;;6212173;28;20232;-49
2022/12/15 01:54:03;;;;;;;78.13;42.37;;;-5.60;1.00;;;;;;6211896;28;20232;-47
2022/12/15 01:57:10;;;;;;;71.53;41.30;;;-5.60;1.00;;;;;;6211236;28;20650;-49
2022/12/15 02:00:15;;;;;;;76.67;41.77;;;-5.70;1.00;;;;;;6211476;28;20238;-50
2022/12/15 02:03:18;;;;;;;77.83;41.20;;;-5.80;1.00;;;;;;6233352;28;20383;-50
2022/12/15 02:06:26;;;;;;;71.80;42.00;;;-5.70;1.00;;;;;;6229480;28;20249;-50
2022/12/15 02:09:29;;;;;;;69.73;40.00;;;-6.00;1.00;;;;;;6212964;28;20241;-50
2022/12/15 02:12:40;;;;;;;63.70;36.73;;;-5.80;1.00;;;;;;6238998;28;20253;-51
2022/12/15 02:15:51;;;;;;;69.80;41.00;;;-5.80;1.00;;;;;;6223125;28;20342;-49
2022/12/15 02:19:04;;;;;;;72.27;40.60;;;-5.90;1.00;;;;;;6231610;28;20362;-54
2022/12/15 02:22:23;;;;;;;69.30;38.73;;;-6.00;1.00;;;;;;6242490;28;20234;-49
2022/12/15 02:25:54;;;;;;;71.27;40.60;;;-6.10;1.00;;;;;;6243838;28;20243;-50
2022/12/15 02:29:09;;;;;;;74.43;41.30;;;-5.90;1.00;;;;;;6231486;28;20502;-49
2022/12/15 02:32:18;;;;;;;67.27;39.63;;;-5.90;1.00;;;;;;6225182;28;20250;-50
2022/12/15 02:35:28;;;;;;;66.67;39.57;;;-6.10;1.00;;;;;;6223947;28;20232;-50
2022/12/15 02:38:34;;;;;;;71.90;40.67;;;-5.90;1.00;;;;;;6226810;28;20643;-51
2022/12/15 02:41:38;;;;;;;74.90;41.10;;;-5.90;1.00;;;;;;6235491;28;20249;-50
2022/12/15 02:44:47;;;;;;;76.67;41.63;;;-6.00;1.00;;;;;;6221604;28;20268;-49
2022/12/15 02:48:00;;;;;;;68.07;38.17;;;-5.90;1.00;;;;;;6210514;28;20235;-53
2022/12/15 02:51:24;;;;;;;74.90;41.50;;;-6.00;1.00;;;;;;6212071;28;20238;-50
2022/12/15 02:54:50;;;;;;;71.90;39.90;;;-6.00;1.00;;;;;;6210058;28;20254;-50
2022/12/15 02:57:58;;;;;;;70.83;39.77;;;-6.00;1.00;;;;;;6209172;28;20239;-50
2022/12/15 03:01:05;;;;;;;72.40;41.73;;;-6.10;1.00;;;;;;6213041;28;20238;-50
2022/12/15 03:04:11;;;;;;;67.63;39.27;;;-6.30;1.00;;;;;;6226834;28;20264;-49
2022/12/15 03:07:26;;;;;;;71.80;40.60;;;-6.20;1.00;;;;;;6233587;28;20485;-50
2022/12/15 03:10:29;;;;;;;70.17;38.53;;;-6.10;1.00;;;;;;6210040;28;20649;-50
2022/12/15 03:13:32;;;;;;;60.90;38.33;;;-5.90;1.00;;;;;;6210082;28;20737;-49
2022/12/15 03:16:36;;;;;;;64.33;38.57;;;-6.00;1.00;;;;;;6209575;28;20258;-50
2022/12/15 03:19:40;;;;;;;71.53;38.73;;;-5.80;1.00;;;;;;6208250;28;20310;-48
2022/12/15 03:22:43;;;;;;;64.17;36.87;;;-5.70;1.00;;;;;;6209965;28;20246;-49
2022/12/15 03:25:46;;;;;;;66.77;37.90;;;-5.60;1.00;;;;;;6209369;28;20426;-50
2022/12/15 03:28:51;;;;;;;66.83;37.60;;;-5.50;1.00;;;;;;6209267;28;20527;-50
2022/12/15 03:31:54;;;;;;;61.73;36.80;;;-5.70;1.00;;;;;;6218924;28;20231;-49
2022/12/15 03:34:59;;;;;;;68.37;38.27;;;-5.60;1.00;;;;;;6233233;28;20770;-49
2022/12/15 03:38:02;;;;;;;56.40;34.97;;;-5.40;1.00;;;;;;6221546;28;20238;-50
2022/12/15 03:41:06;;;;;;;66.97;38.80;;;-5.60;1.00;;;;;;6234678;28;20249;-50
2022/12/15 03:44:09;;;;;;;65.47;38.93;;;-5.70;1.00;;;;;;6222000;28;20250;-50
2022/12/15 03:47:12;;;;;;;65.37;36.40;;;-5.80;1.00;;;;;;6209570;28;20606;-50
2022/12/15 03:50:19;;;;;;;63.80;36.27;;;-5.70;1.00;;;;;;6209156;28;20723;-49
2022/12/15 03:53:22;;;;;;;62.30;37.23;;;-5.70;1.00;;;;;;6203314;28;20235;-48
2022/12/15 03:56:25;;;;;;;60.80;34.03;;;-5.70;1.00;;;;;;6209818;28;20600;-50
2022/12/15 03:59:28;;;;;;;62.07;36.13;;;-5.70;1.00;;;;;;6209136;28;20235;-50
2022/12/15 04:02:31;;;;;;;62.00;36.80;;;-5.70;1.00;;;;;;6223661;28;20231;-55
2022/12/15 04:05:36;;;;;;;59.63;34.53;;;-5.80;1.00;;;;;;6233519;28;20242;-56
2022/12/15 04:08:39;;;;;;;60.77;36.20;;;-5.80;1.00;;;;;;6227133;28;20258;-49
2022/12/15 04:11:41;;;;;;;61.87;35.23;;;-5.90;1.00;;;;;;6211382;28;20239;-49
2022/12/15 04:14:45;;;;;;;60.30;36.13;;;-5.90;1.00;;;;;;6209730;28;20257;-50
2022/12/15 04:17:51;;;;;;;64.73;35.53;;;-6.10;1.00;;;;;;6229107;28;20243;-50
2022/12/15 04:20:55;;;;;;;60.70;36.17;;;-6.00;1.00;;;;;;6209664;28;20235;-49
2022/12/15 05:34:28;;;;;;;54.93;32.13;;;-7.20;1.00;;;;;;6248928;28;20345;-52
2022/12/15 05:37:31;;;;;;;56.43;31.50;;;-7.70;1.00;;;;;;6237128;28;20249;-49
2022/12/15 05:40:34;;;;;;;63.80;31.90;;;-7.30;1.00;;;;;;6250960;28;20234;-50
2022/12/15 05:43:39;;;;;;;60.30;31.67;;;-7.60;1.00;;;;;;6231874;28;20243;-45
2022/12/15 05:46:41;;;;;;;60.57;31.23;;;-7.60;1.00;;;;;;6234415;28;20399;-51
2022/12/15 05:49:44;;;;;;;58.80;29.90;;;-7.40;1.00;;;;;;6233711;28;20231;-49
2022/12/15 05:52:49;;;;;;;55.80;30.97;;;-7.40;1.00;;;;;;6224431;28;20585;-48
2022/12/15 05:55:52;;;;;;;60.57;32.00;;;-7.40;1.00;;;;;;6234400;28;20234;-49
2022/12/15 05:58:57;;;;;;;56.80;30.10;;;-7.30;1.00;;;;;;6240046;28;20926;-49
2022/12/15 06:02:00;;;;;;;55.87;30.77;;;-7.50;1.00;;;;;;6233834;28;20238;-48
2022/12/15 06:05:03;;;;;;;61.17;30.83;;;-7.30;1.00;;;;;;6235440;28;20238;-51
2022/12/15 06:08:06;;;;;;;62.97;31.77;;;-7.50;1.00;;;;;;6225904;28;20235;-49
2022/12/15 06:11:12;;;;;;;57.93;31.43;;;-7.40;1.00;;;;;;6234380;28;20242;-49
2022/12/15 06:14:16;;;;;;;68.00;32.23;;;-7.70;1.00;;;;;;6235145;28;20235;-50
2022/12/15 06:17:19;;;;;;;63.70;32.73;;;-7.60;1.00;;;;;;6240809;28;20343;-49
2022/12/15 06:20:23;;;;;;;58.63;31.73;;;-7.40;1.00;;;;;;6233498;28;20859;-49
2022/12/15 06:23:27;;;;;;;60.27;32.60;;;-7.30;1.00;;;;;;6237511;28;20250;-49
2022/12/15 06:26:32;;;;;;;64.57;33.87;;;-7.50;1.00;;;;;;6233048;28;20231;-50
2022/12/15 06:29:36;;;;;;;67.73;33.33;;;-7.40;1.00;;;;;;6228752;28;20243;-51
2022/12/15 06:32:39;;;;;;;62.37;32.77;;;-7.40;1.00;;;;;;6236622;28;20607;-50
2022/12/15 06:35:42;;;;;;;68.80;33.40;;;-7.30;1.00;;;;;;6231243;28;20249;-50
2022/12/15 06:38:46;;;;;;;65.93;33.57;;;-7.30;1.00;;;;;;6232565;28;20378;-49
2022/12/15 06:41:52;;;;;;;61.50;33.67;;;-7.30;1.00;;;;;;6231741;28;20233;-49
2022/12/15 06:44:56;;;;;;;55.37;33.13;;;-7.40;1.00;;;;;;6234397;28;20238;-49
2022/12/15 06:47:59;;;;;;;59.40;32.93;;;-7.20;1.00;;;;;;6229921;28;20254;-53
2022/12/15 06:51:05;;;;;;;68.47;34.13;;;-7.60;1.00;;;;;;6228234;28;20352;-50
2022/12/15 06:54:11;;;;;;;63.97;32.30;;;-7.50;1.00;;;;;;6233146;28;20242;-50
2022/12/15 06:57:14;;;;;;;71.43;31.50;;;-7.40;1.00;;;;;;6226255;28;20362;-49
2022/12/15 07:00:19;;;;;;;60.90;31.77;;;-7.50;1.00;;;;;;6256769;28;20251;-49
2022/12/15 07:03:23;;;;;;;61.33;33.00;;;-7.70;1.00;;;;;;6257290;28;20649;-50
2022/12/15 07:06:27;;;;;;;54.83;30.50;;;-7.50;1.00;;;;;;6256421;28;20843;-50
2022/12/15 07:09:30;;;;;;;56.00;31.07;;;-7.40;1.00;;;;;;6256738;28;20238;-49
2022/12/15 07:12:32;;;;;;;54.87;29.40;;;-7.80;1.00;;;;;;6256523;28;20225;-50
2022/12/15 07:15:37;;;;;;;58.37;30.40;;;-7.70;1.00;;;;;;6255362;28;20247;-50
2022/12/15 07:18:40;;;;;;;55.53;30.60;;;-7.70;1.00;;;;;;6257520;28;20238;-50
2022/12/15 07:21:43;;;;;;;53.43;29.20;;;-7.50;1.00;;;;;;6256310;28;20230;-49
2022/12/15 07:24:46;;;;;;;50.00;29.13;;;-7.60;1.00;;;;;;6256592;28;20249;-49
2022/12/15 07:27:49;;;;;;;46.13;28.27;;;-7.70;1.00;;;;;;6257526;28;20234;-50
2022/12/15 07:30:54;;;;;;;53.30;28.50;;;-7.70;1.00;;;;;;6255502;28;20711;-49
2022/12/15 07:33:57;;;;;;;54.67;31.00;;;-7.50;1.00;;;;;;6257541;28;20245;-49
2022/12/15 07:37:00;;;;;;;48.60;29.07;;;-7.40;1.00;;;;;;6252895;28;20230;-52
2022/12/15 07:40:04;;;;;;;50.73;29.17;;;-7.80;1.00;;;;;;6254597;28;20237;-49
2022/12/15 07:43:07;;;;;;;53.43;30.07;;;-7.60;1.00;;;;;;6256030;28;20241;-52
2022/12/15 07:46:12;;;;;;;51.30;28.57;;;-7.70;1.00;;;;;;6258337;28;20576;-49
2022/12/15 07:49:15;;;;;;;57.47;31.20;;;-7.40;1.00;;;;;;6254499;28;20258;-51
2022/12/15 07:52:18;;;;;;;50.60;29.00;;;-7.40;1.00;;;;;;6250215;28;20488;-49
2022/12/15 07:55:21;;;;;;;53.23;30.53;;;-7.60;1.00;;;;;;6257084;28;20248;-49
2022/12/15 07:58:44;;;;;;;50.77;29.73;;;-7.50;1.00;;;;;;6253372;28;20729;-50
2022/12/15 08:01:49;;;;;;;52.13;30.37;;;-7.40;1.00;;;;;;6256466;28;20476;-50
2022/12/15 08:04:52;;;;;;;46.93;28.83;;;-7.40;1.00;;;;;;6257485;28;20237;-52
2022/12/15 08:07:57;;;;;;;50.07;29.93;;;-7.50;1.00;;;;;;6252722;28;20242;-50
2022/12/15 08:11:04;;;;;;;51.80;30.23;;;-7.20;1.00;;;;;;6258181;28;20249;-51
2022/12/15 08:14:07;;;;;;;51.10;29.57;;;-7.50;1.00;;;;;;6264449;28;20237;-51
2022/12/15 08:17:20;;;;;;;55.10;30.03;;;-7.20;1.00;;;;;;6263848;28;20245;-51
2022/12/15 08:20:24;;;;;;;52.87;28.40;;;-7.40;1.00;;;;;;6261177;28;20238;-49
2022/12/15 08:23:27;;;;;;;55.03;29.63;;;-7.10;1.00;;;;;;6266541;28;20241;-50
2022/12/15 08:26:31;;;;;;;50.30;28.60;;;-7.20;1.00;;;;;;6251340;28;20242;-50
2022/12/15 08:29:34;;;;;;;52.33;29.70;;;-7.20;1.00;;;;;;6260872;28;20238;-50
2022/12/15 08:32:55;;;;;;;48.77;28.83;;;-7.00;1.00;;;;;;6261668;28;20756;-49
2022/12/15 08:36:01;;;;;;;42.47;26.97;;;-6.90;1.00;;;;;;6258492;28;20233;-51
2022/12/15 08:39:04;;;;;;;46.60;29.87;;;-6.80;1.00;;;;;;6261306;28;20855;-50
2022/12/15 08:42:07;;;;;;;48.13;28.43;;;-6.80;1.00;;;;;;6260570;28;20507;-49
2022/12/15 08:45:12;;;;;;;49.63;28.27;;;-6.60;1.00;;;;;;6260707;28;20337;-50
2022/12/15 08:48:16;;;;;;;51.97;30.13;;;-6.80;1.00;;;;;;6259052;28;20234;-50
2022/12/15 08:51:20;;;;;;;45.23;27.23;;;-6.60;1.00;;;;;;6256236;28;20237;-50
2022/12/15 08:58:04;;;;;;;46.43;29.57;;;-6.70;1.00;;;;;;6250162;28;20235;-50
2022/12/15 09:01:54;;;;;;;47.87;29.13;;;-6.60;1.00;;;;;;6263264;28;20290;-50
2022/12/15 09:04:59;;;;;;;50.60;30.00;;;-6.50;1.00;;;;;;6257602;28;20325;-49
2022/12/15 09:08:02;;;;;;;48.70;29.30;;;-6.70;1.00;;;;;;6254855;28;20241;-50
2022/12/15 09:11:09;;;;;;;53.23;29.40;;;-6.50;1.00;;;;;;6254719;28;20620;-50
2022/12/15 09:14:12;;;;;;;54.20;30.93;;;-6.60;1.00;;;;;;6259461;28;20225;-50
2022/12/15 09:17:15;;;;;;;53.37;30.80;;;-6.30;1.00;;;;;;6256536;28;20234;-50
2022/12/15 09:20:19;;;;;;;52.87;30.67;;;-6.30;1.00;;;;;;6255315;28;20241;-50
2022/12/15 09:23:22;;;;;;;50.30;30.50;;;-6.30;1.00;;;;;;6257341;28;20229;-50
2022/12/15 09:26:26;;;;;;;45.10;28.37;;;-6.10;1.00;;;;;;6259298;28;20488;-50
2022/12/15 09:29:29;;;;;;;46.97;28.27;;;-6.30;1.00;;;;;;6260953;28;20254;-50
2022/12/15 09:32:32;;;;;;;52.07;30.27;;;-6.30;1.00;;;;;;6256456;28;20226;-50
2022/12/15 09:35:36;;;;;;;52.43;31.30;;;-5.80;1.00;;;;;;6256505;28;20878;-49
2022/12/15 09:38:41;;;;;;;52.03;29.73;;;-5.80;1.00;;;;;;6258992;28;20257;-51
2022/12/15 09:41:52;;;;;;;48.20;29.47;;;-5.60;1.00;;;;;;6257410;28;20359;-50
2022/12/15 09:45:01;;;;;;;49.47;28.50;;;-5.50;1.00;;;;;;6252608;28;20276;-49
2022/12/15 09:48:10;;;;;;;51.07;29.27;;;-5.30;1.00;;;;;;6251641;28;20230;-50
2022/12/15 09:51:17;;;;;;;49.60;28.37;;;-5.10;1.00;;;;;;6252894;28;20237;-51
2022/12/15 09:54:23;;;;;;;44.10;28.90;;;-5.30;1.00;;;;;;6254976;28;20264;-50
2022/12/15 09:57:35;;;;;;;42.63;27.57;;;-5.10;1.00;;;;;;6257978;28;20257;-50
2022/12/15 10:00:43;;;;;;;47.47;27.80;;;-5.00;1.00;;;;;;6258858;28;20238;-51
2022/12/15 10:03:57;;;;;;;44.00;27.60;;;-4.80;1.00;;;;;;6259059;28;20608;-51
2022/12/15 10:07:08;;;;;;;46.93;29.23;;;-4.70;1.00;;;;;;6253706;28;20249;-50
2022/12/15 10:10:17;;;;;;;44.87;28.30;;;-4.90;1.00;;;;;;6260517;28;20226;-50
2022/12/15 10:13:24;;;;;;;51.53;29.63;;;-4.60;1.00;;;;;;6262364;28;20233;-50
2022/12/15 10:16:32;;;;;;;48.07;29.43;;;-4.80;1.00;;;;;;6266831;28;20233;-50
2022/12/15 10:19:41;;;;;;;50.10;29.97;;;-4.60;1.00;;;;;;6264194;28;20230;-52
2022/12/15 10:22:46;;;;;;;51.77;29.90;;;-4.70;1.00;;;;;;6261687;28;20736;-50
2022/12/15 10:25:59;;;;;;;49.83;30.07;;;-4.60;1.00;;;;;;6268009;28;20264;-49
2022/12/15 10:29:13;;;;;;;55.53;30.20;;;-4.60;1.00;;;;;;6261737;28;20240;-50
2022/12/15 10:32:19;;;;;;;50.30;30.63;;;-4.70;1.00;;;;;;6238929;28;20405;-50
2022/12/15 10:35:26;;;;;;;52.97;30.07;;;-4.70;1.00;;;;;;6234100;28;20237;-51
2022/12/15 10:38:36;;;;;;;51.13;28.87;;;-4.50;1.00;;;;;;6227347;28;20805;-52
2022/12/15 10:41:39;;;;;;;46.50;27.90;;;-4.30;1.00;;;;;;6229759;28;20246;-50
2022/12/15 10:44:43;;;;;;;45.33;27.20;;;-4.30;1.00;;;;;;6230795;28;20243;-51
2022/12/15 10:48:01;;;;;;;50.40;28.10;;;-4.20;1.00;;;;;;6231179;28;20235;-51
2022/12/15 10:51:32;;;;;;;45.87;27.80;;;-4.00;1.00;;;;;;6233858;28;20326;-51
2022/12/15 10:54:43;;;;;;;50.20;28.67;;;-3.90;1.00;;;;;;6197341;28;20238;-51
2022/12/15 10:57:58;;;;;;;46.53;29.03;;;-3.60;1.00;;;;;;6230615;28;20649;-51
2022/12/15 11:01:15;;;;;;;46.77;27.20;;;-3.50;1.00;;;;;;6229409;28;20239;-51
2022/12/15 11:04:26;;;;;;;44.77;27.83;;;-3.40;1.00;;;;;;6223146;28;20258;-51
2022/12/15 11:07:35;;;;;;;43.17;27.43;;;-3.40;1.00;;;;;;6235923;28;20538;-50
2022/12/15 11:14:14;;;;;;;44.03;27.37;;;-2.90;1.00;;;;;;6247076;28;20241;-51
2022/12/15 11:17:18;;;;;;;40.37;26.70;;;-2.80;1.00;;;;;;6236637;28;20238;-52
2022/12/15 11:20:27;;;;;;;40.93;26.30;;;-2.90;1.00;;;;;;6232211;28;20238;-51
2022/12/15 11:23:51;;;;;;;44.47;27.27;;;-2.60;1.00;;;;;;6234349;28;20238;-50
2022/12/15 11:27:01;;;;;;;46.03;28.37;;;-2.60;1.00;;;;;;6232643;28;20811;-51
2022/12/15 11:30:13;;;;;;;41.63;27.07;;;-2.50;1.00;;;;;;6225984;28;20488;-51
2022/12/15 11:33:16;;;;;;;41.47;26.83;;;-2.50;1.00;;;;;;6229060;28;20242;-51
2022/12/15 11:36:40;;;;;;;40.90;25.43;;;-2.40;1.00;;;;;;6231823;28;20245;-50
2022/12/15 11:40:04;;;;;;;45.33;27.47;;;-2.40;1.00;;;;;;6224263;28;20374;-52
2022/12/15 11:43:34;;;;;;;39.70;26.53;;;-2.60;1.00;;;;;;6227734;28;20241;-52
2022/12/15 11:46:43;;;;;;;48.07;27.67;;;-2.30;1.00;;;;;;6231941;28;20249;-51
2022/12/15 11:50:02;;;;;;;45.37;28.67;;;-2.50;1.00;;;;;;6229912;28;20494;-50
2022/12/15 11:53:43;;;;;;;45.17;26.60;;;-2.60;1.00;;;;;;6228746;28;20698;-51
2022/12/15 11:56:55;;;;;;;46.90;28.53;;;-2.30;1.00;;;;;;6235558;28;20238;-51
2022/12/15 12:00:05;;;;;;;44.57;29.03;;;-2.20;1.00;;;;;;6235454;28;20842;-49
2022/12/15 12:03:20;;;;;;;45.10;28.57;;;-2.20;1.00;;;;;;6233356;28;20231;-51
2022/12/15 12:06:32;;;;;;;47.83;28.47;;;-2.20;1.00;;;;;;6258105;28;20230;-52
2022/12/15 12:09:37;;;;;;;43.83;27.80;;;-2.10;1.00;;;;;;6251100;28;20234;-50
2022/12/15 12:12:46;;;;;;;47.20;26.47;;;-2.20;1.00;;;;;;6260919;28;20315;-50
2022/12/15 12:16:01;;;;;;;48.30;28.67;;;-2.00;1.00;;;;;;6260889;28;20746;-51
2022/12/15 12:19:09;;;;;;;47.27;28.83;;;-2.10;1.00;;;;;;6253774;28;20230;-51
2022/12/15 12:22:20;;;;;;;40.40;26.70;;;-2.00;1.00;;;;;;6258959;28;20237;-50
2022/12/15 12:25:25;;;;;;;46.70;26.93;;;-1.90;1.00;;;;;;6245444;28;20227;-54
2022/12/15 12:28:35;;;;;;;42.20;26.67;;;-1.60;1.00;;;;;;6242132;28;20234;-51
2022/12/15 12:31:49;;;;;;;44.00;28.13;;;-1.80;1.00;;;;;;6237904;28;20241;-52
2022/12/15 12:35:01;;;;;;;41.93;26.97;;;-1.30;1.00;;;;;;6228992;28;20245;-51
2022/12/15 12:38:29;;;;;;;43.13;26.80;;;-1.40;1.00;;;;;;6217809;28;20230;-50
2022/12/15 12:41:41;;;;;;;39.80;27.30;;;-1.30;1.00;;;;;;6226196;28;20243;-51
2022/12/15 12:44:44;;;;;;;42.13;29.13;;;-1.30;1.00;;;;;;6226739;28;20227;-51
2022/12/15 12:47:55;;;;;;;48.70;27.40;;;-1.40;1.00;;;;;;6228125;28;21357;-51
2022/12/15 12:51:12;;;;;;;38.73;27.20;;;-1.30;1.00;;;;;;6233542;28;20238;-52
2022/12/15 12:54:41;;;;;;;38.80;26.37;;;-1.40;1.00;;;;;;6254475;28;20268;-51
2022/12/15 12:57:45;;;;;;;42.60;27.43;;;-1.10;1.00;;;;;;6257003;28;20618;-51
2022/12/15 13:01:17;;;;;;;42.37;28.07;;;-1.50;1.00;;;;;;6238796;28;20388;-50
2022/12/15 13:04:40;;;;;;;42.33;27.43;;;-1.60;1.00;;;;;;6229919;28;20227;-51
2022/12/15 13:07:54;;;;;;;43.33;27.73;;;-1.50;1.00;;;;;;6256820;28;20552;-51
2022/12/15 13:11:37;;;;;;;42.10;27.30;;;-1.60;1.00;;;;;;6233452;28;20235;-52
2022/12/15 13:14:48;;;;;;;47.10;28.00;;;-1.40;1.00;;;;;;6239065;28;20265;-51
2022/12/15 13:18:16;;;;;;;44.90;26.93;;;-1.70;1.00;;;;;;6235775;28;20253;-51
2022/12/15 13:21:52;;;;;;;42.83;27.80;;;-1.30;1.00;;;;;;6240078;28;20246;-51
2022/12/15 13:24:57;;;;;;;39.07;26.57;;;-1.50;1.00;;;;;;6233782;28;20707;-51
2022/12/15 13:28:15;;;;;;;44.80;27.93;;;-1.50;1.00;;;;;;6234779;28;20235;-51
2022/12/15 13:31:42;;;;;;;43.43;26.90;;;-1.60;1.00;;;;;;6223022;28;20234;-51
2022/12/15 13:34:45;;;;;;;41.37;27.47;;;-1.40;1.00;;;;;;6229837;28;20258;-50
2022/12/15 13:37:52;;;;;;;41.90;26.13;;;-1.70;1.00;;;;;;6230873;28;20239;-51
2022/12/15 13:40:55;;;;;;;42.53;25.93;;;-1.50;1.00;;;;;;6232849;28;20384;-51
2022/12/15 13:44:00;;;;;;;40.00;26.20;;;-2.00;1.00;;;;;;6234973;28;20356;-51
2022/12/15 13:47:10;;;;;;;42.73;26.70;;;-1.60;1.00;;;;;;6235933;28;20234;-51
2022/12/15 13:50:18;;;;;;;42.03;26.67;;;-1.80;1.00;;;;;;6232589;28;20759;-51
2022/12/15 13:53:24;;;;;;;45.07;26.37;;;-1.70;1.00;;;;;;6250067;28;20644;-51
2022/12/15 13:56:51;;;;;;;42.53;27.43;;;-1.80;1.00;;;;;;6263426;28;20234;-51
2022/12/15 14:00:03;;;;;;;39.70;25.43;;;-1.70;1.00;;;;;;6259336;28;20689;-51
2022/12/15 14:03:10;;;;;;;38.97;26.33;;;-1.70;1.00;;;;;;6249312;28;20243;-51
2022/12/15 14:06:15;;;;;;;35.10;23.40;;;-1.80;1.00;;;;;;6230206;28;20239;-51
2022/12/15 14:09:25;;;;;;;37.20;24.80;;;-1.80;1.00;;;;;;6231124;28;20245;-51
2022/12/15 14:12:29;;;;;;;36.23;23.80;;;-1.90;1.00;;;;;;6229440;28;20230;-53
2022/12/15 14:15:34;;;;;;;38.73;25.97;;;-1.80;1.00;;;;;;6223829;28;20747;-49
2022/12/15 14:18:39;;;;;;;35.73;25.47;;;-1.80;1.00;;;;;;6230069;28;20872;-51
2022/12/15 14:21:49;;;;;;;40.50;26.80;;;-1.90;1.00;;;;;;6228877;28;20278;-52
2022/12/15 14:25:01;;;;;;;46.20;27.30;;;-1.90;1.00;;;;;;6253631;28;20234;-52
2022/12/15 14:28:04;;;;;;;47.57;29.07;;;-2.00;1.00;;;;;;6254346;28;20234;-52
2022/12/15 14:31:17;;;;;;;43.97;27.27;;;-1.90;1.00;;;;;;6255232;28;20230;-52
2022/12/15 14:34:26;;;;;;;42.90;27.30;;;-2.00;1.00;;;;;;6255264;28;20242;-51
2022/12/15 14:37:29;;;;;;;46.83;27.70;;;-2.00;1.00;;;;;;6253291;28;20242;-51
2022/12/15 14:40:35;;;;;;;47.87;29.63;;;-2.00;1.00;;;;;;6255041;28;20377;-52
2022/12/15 14:43:40;;;;;;;54.57;30.80;;;-2.00;1.00;;;;;;6256689;28;20246;-51
2022/12/15 14:46:46;;;;;;;49.33;29.87;;;-2.00;1.00;;;;;;6258075;28;20242;-52
2022/12/15 14:49:50;;;;;;;45.43;28.60;;;-2.40;1.00;;;;;;6252958;28;20726;-51
2022/12/15 14:52:57;;;;;;;46.97;28.93;;;-2.10;1.00;;;;;;6258530;28;20242;-52
2022/12/15 14:56:20;;;;;;;49.13;27.87;;;-2.30;1.00;;;;;;6254021;28;20230;-49
2022/12/15 14:59:34;;;;;;;48.43;29.13;;;-2.10;1.00;;;;;;6243906;28;20241;-52
2022/12/15 15:02:37;;;;;;;43.90;27.50;;;-2.10;1.00;;;;;;6252443;28;20246;-51
2022/12/15 15:05:42;;;;;;;42.23;28.03;;;-2.20;1.00;;;;;;6258211;28;20234;-51
2022/12/15 15:08:48;;;;;;;44.80;28.93;;;-2.10;1.00;;;;;;6256285;28;20246;-49
2022/12/15 15:11:55;;;;;;;45.60;29.17;;;-2.10;1.00;;;;;;6256431;28;20690;-51
2022/12/15 15:15:02;;;;;;;46.37;29.37;;;-2.20;1.00;;;;;;6257990;28;20234;-50
2022/12/15 15:18:06;;;;;;;48.57;29.53;;;-2.30;1.00;;;;;;6254436;28;20246;-50
2022/12/15 15:21:16;;;;;;;42.87;27.30;;;-2.40;1.00;;;;;;6257448;28;20229;-51
2022/12/15 15:24:25;;;;;;;45.17;29.10;;;-2.50;1.00;;;;;;6265977;28;20236;-51
2022/12/15 15:27:38;;;;;;;48.33;28.57;;;-2.60;1.00;;;;;;6260164;28;20234;-49
2022/12/15 15:30:44;;;;;;;45.67;28.93;;;-2.60;1.00;;;;;;6259749;28;20237;-49
2022/12/15 15:33:50;;;;;;;42.03;28.10;;;-2.50;1.00;;;;;;6240207;28;20327;-50
2022/12/15 15:36:53;;;;;;;43.63;27.03;;;-2.40;1.00;;;;;;6234953;28;20249;-51
2022/12/15 15:39:56;;;;;;;45.80;30.07;;;-2.70;1.00;;;;;;6233501;28;20230;-51
2022/12/15 15:43:01;;;;;;;46.80;28.30;;;-2.40;1.00;;;;;;6223600;28;20812;-51
2022/12/15 15:46:07;;;;;;;44.37;27.87;;;-2.60;1.00;;;;;;6236817;28;20234;-50
2022/12/15 15:49:16;;;;;;;47.87;28.87;;;-2.80;1.00;;;;;;6225234;28;20240;-51
2022/12/15 15:52:19;;;;;;;49.23;30.10;;;-2.80;1.00;;;;;;6227520;28;20235;-51
2022/12/15 15:55:27;;;;;;;43.80;28.47;;;-2.80;1.00;;;;;;6236726;28;20239;-52
2022/12/15 15:58:31;;;;;;;49.20;29.83;;;-2.70;1.00;;;;;;6213813;28;20230;-50
2022/12/15 16:01:34;;;;;;;46.30;29.70;;;-2.80;1.00;;;;;;6230381;28;20307;-51
2022/12/15 16:04:40;;;;;;;54.20;30.70;;;-2.70;1.00;;;;;;6224901;28;20321;-51
2022/12/15 16:07:45;;;;;;;47.67;29.87;;;-2.90;1.00;;;;;;6230586;28;20714;-50
2022/12/15 16:10:49;;;;;;;50.23;29.87;;;-3.00;1.00;;;;;;6225130;28;20239;-51
2022/12/15 16:13:55;;;;;;;47.90;30.53;;;-3.10;1.00;;;;;;6230538;28;20242;-50
2022/12/15 16:16:58;;;;;;;51.97;32.67;;;-2.80;1.00;;;;;;6252152;28;20245;-51
2022/12/15 16:20:02;;;;;;;48.27;30.43;;;-3.00;1.00;;;;;;6228333;28;20246;-50
2022/12/15 16:23:11;;;;;;;50.73;30.70;;;-2.80;1.00;;;;;;6222663;28;20242;-50
2022/12/15 16:26:16;;;;;;;52.43;33.20;;;-2.80;1.00;;;;;;6232300;28;20238;-53
2022/12/15 16:29:21;;;;;;;56.73;33.27;;;-2.90;1.00;;;;;;6228905;28;20234;-51
2022/12/15 16:32:24;;;;;;;53.33;34.30;;;-2.70;1.00;;;;;;6232132;28;20249;-51
2022/12/15 16:35:27;;;;;;;52.33;31.37;;;-2.60;1.00;;;;;;6228718;28;20231;-51
2022/12/15 16:38:31;;;;;;;53.77;35.50;;;-2.80;1.00;;;;;;6224535;28;20242;-51
2022/12/15 16:41:35;;;;;;;48.33;32.23;;;-2.90;1.00;;;;;;6225783;28;20230;-51
2022/12/15 16:44:39;;;;;;;49.33;31.13;;;-2.90;1.00;;;;;;6237061;28;20386;-51
2022/12/15 16:47:42;;;;;;;50.40;31.73;;;-2.90;1.00;;;;;;6236816;28;20235;-51
2022/12/15 16:50:49;;;;;;;49.40;30.00;;;-2.80;1.00;;;;;;6229377;28;20575;-51
2022/12/15 16:53:53;;;;;;;47.70;29.50;;;-2.80;1.00;;;;;;6242364;28;20727;-52
2022/12/15 16:56:58;;;;;;;47.30;29.97;;;-3.00;1.00;;;;;;6259273;28;20238;-51
2022/12/15 17:00:11;;;;;;;54.97;32.07;;;-2.70;1.00;;;;;;6260133;28;20760;-51
2022/12/15 17:03:15;;;;;;;51.37;30.30;;;-2.90;1.00;;;;;;6258266;28;20242;-51
2022/12/15 17:06:18;;;;;;;56.33;32.20;;;-2.90;1.00;;;;;;6255800;28;20737;-50
2022/12/15 17:09:24;;;;;;;49.33;32.03;;;-2.90;1.00;;;;;;6255349;28;21654;-51
2022/12/15 17:12:27;;;;;;;51.80;32.40;;;-3.00;1.00;;;;;;6253179;28;20234;-51
2022/12/15 17:15:31;;;;;;;50.03;30.53;;;-3.00;1.00;;;;;;6255736;28;20476;-51
2022/12/15 17:18:34;;;;;;;52.53;30.87;;;-2.90;1.00;;;;;;6258449;28;20313;-52
2022/12/15 17:21:44;;;;;;;51.77;31.97;;;-3.00;1.00;;;;;;6249984;28;20231;-52
2022/12/15 17:24:48;;;;;;;49.63;32.70;;;-3.00;1.00;;;;;;6256569;28;20609;-50
2022/12/15 17:27:54;;;;;;;49.70;32.67;;;-3.00;1.00;;;;;;6258407;28;20619;-50
2022/12/15 17:30:59;;;;;;;47.73;30.73;;;-2.90;1.00;;;;;;6257847;28;20234;-51
2022/12/15 17:34:22;;;;;;;51.77;32.57;;;-3.00;1.00;;;;;;6258349;28;20542;-54
2022/12/15 17:37:25;;;;;;;56.03;33.80;;;-3.20;1.00;;;;;;6257011;28;20268;-50
2022/12/15 17:40:36;;;;;;;50.53;32.50;;;-3.10;1.00;;;;;;6251967;28;20433;-50
2022/12/15 17:43:40;;;;;;;49.93;32.60;;;-2.90;1.00;;;;;;6258230;28;20707;-50
2022/12/15 17:46:45;;;;;;;52.93;32.50;;;-2.90;1.00;;;;;;6253994;28;20333;-50
2022/12/15 17:49:48;;;;;;;54.03;33.17;;;-2.90;1.00;;;;;;6257464;28;20234;-53
2022/12/15 17:52:51;;;;;;;51.67;32.37;;;-3.20;1.00;;;;;;6258348;28;20309;-50
2022/12/15 17:55:54;;;;;;;49.97;31.07;;;-3.10;1.00;;;;;;6257557;28;20617;-52
2022/12/15 17:58:57;;;;;;;53.07;31.63;;;-3.00;1.00;;;;;;6258963;28;20234;-54
2022/12/15 18:02:02;;;;;;;51.00;33.23;;;-3.00;1.00;;;;;;6260122;28;20245;-53
2022/12/15 18:05:06;;;;;;;51.50;33.23;;;-3.10;1.00;;;;;;6254683;28;20234;-53
2022/12/15 18:08:13;;;;;;;50.63;33.50;;;-3.10;1.00;;;;;;6254651;28;20241;-51
2022/12/15 18:11:17;;;;;;;52.43;32.70;;;-3.10;1.00;;;;;;6239981;28;20230;-50
2022/12/15 18:14:21;;;;;;;52.63;34.57;;;-3.20;1.00;;;;;;6254340;28;20242;-51
2022/12/15 18:17:25;;;;;;;55.37;35.10;;;-3.30;1.00;;;;;;6256168;28;20304;-51
2022/12/15 18:20:29;;;;;;;51.27;34.80;;;-3.20;1.00;;;;;;6256239;28;20880;-51
2022/12/15 18:23:32;;;;;;;54.80;35.70;;;-3.30;1.00;;;;;;6254919;28;20234;-51
2022/12/15 18:26:37;;;;;;;53.57;34.67;;;-3.30;1.00;;;;;;6255678;28;20245;-50
2022/12/15 18:29:40;;;;;;;52.60;33.87;;;-3.30;1.00;;;;;;6255526;28;20226;-50